createdAt,value
2018-03-01T00:01:00.605Z,99.90
2018-03-01T00:03:28.972Z,99.90
2018-03-01T00:05:57.281Z,99.90
2018-03-01T00:08:25.661Z,99.90
2018-03-01T00:10:53.985Z,99.90
2018-03-01T00:13:22.296Z,99.90
2018-03-01T00:15:50.688Z,99.90
2018-03-01T00:18:19.463Z,99.90
2018-03-01T00:20:47.817Z,99.90
2018-03-01T00:23:16.184Z,99.90
2018-03-01T00:25:44.652Z,99.90
2018-03-01T00:28:13.193Z,99.90
2018-03-01T00:30:41.584Z,99.90
2018-03-01T00:33:09.916Z,99.90
2018-03-01T00:35:38.859Z,99.90
2018-03-01T00:38:07.383Z,99.90
2018-03-01T00:40:35.698Z,99.90
2018-03-01T00:43:04.018Z,99.90
2018-03-01T00:45:32.387Z,99.90
2018-03-01T00:48:01.007Z,99.90
2018-03-01T00:50:29.338Z,99.90
2018-03-01T00:52:57.885Z,99.90
2018-03-01T00:55:26.204Z,99.90
2018-03-01T00:57:54.572Z,99.90
2018-03-01T01:00:22.892Z,99.90
2018-03-01T01:02:51.200Z,99.90
2018-03-01T01:05:19.544Z,99.90
2018-03-01T01:07:47.860Z,99.90
2018-03-01T01:10:16.208Z,99.90
2018-03-01T01:12:44.528Z,99.90
2018-03-01T01:15:13.754Z,99.90
2018-03-01T01:17:42.116Z,99.90
2018-03-01T01:20:10.430Z,99.90
2018-03-01T01:22:38.749Z,99.90
2018-03-01T01:25:07.156Z,99.90
2018-03-01T01:27:35.579Z,99.90
2018-03-01T01:30:03.900Z,99.90
2018-03-01T01:32:32.626Z,99.90
2018-03-01T01:35:01.115Z,99.90
2018-03-01T01:37:29.436Z,99.90
2018-03-01T01:39:57.780Z,99.90
2018-03-01T01:42:26.107Z,99.90
2018-03-01T01:44:54.420Z,99.90
2018-03-01T01:47:22.768Z,99.90
2018-03-01T01:49:51.709Z,99.90
2018-03-01T01:52:20.432Z,99.90
2018-03-01T01:54:48.748Z,99.90
2018-03-01T01:57:17.068Z,99.90
2018-03-01T01:59:45.445Z,99.90
2018-03-01T02:02:13.765Z,99.90
2018-03-01T02:04:42.080Z,99.90
2018-03-01T02:07:10.425Z,99.90
2018-03-01T02:09:38.732Z,99.90
2018-03-01T02:12:07.098Z,99.90
2018-03-01T02:14:35.408Z,99.90
2018-03-01T02:17:04.128Z,99.90
2018-03-01T02:19:32.612Z,99.90
2018-03-01T02:22:00.930Z,99.90
2018-03-01T02:24:29.237Z,99.90
2018-03-01T02:26:57.596Z,99.90
2018-03-01T02:29:25.964Z,99.90
2018-03-01T02:31:54.283Z,99.90
2018-03-01T02:34:23.372Z,99.90
2018-03-01T02:36:51.911Z,99.90
2018-03-01T02:39:20.355Z,99.90
2018-03-01T02:41:48.688Z,99.90
2018-03-01T02:44:17.691Z,99.90
2018-03-01T02:46:46.015Z,99.90
2018-03-01T02:49:14.333Z,99.90
2018-03-01T02:51:42.906Z,99.90
2018-03-01T02:54:11.220Z,99.90
2018-03-01T02:56:39.537Z,99.90
2018-03-01T02:59:07.925Z,99.90
2018-03-01T03:01:36.456Z,99.90
2018-03-01T03:04:04.792Z,99.90
2018-03-01T03:06:33.140Z,99.90
2018-03-01T03:09:01.458Z,99.90
2018-03-01T03:11:29.780Z,99.90
2018-03-01T03:13:59.318Z,99.90
2018-03-01T03:16:27.708Z,99.90
2018-03-01T03:18:56.041Z,99.90
2018-03-01T03:21:24.722Z,99.90
2018-03-01T03:23:53.279Z,99.90
2018-03-01T03:26:21.664Z,99.90
2018-03-01T03:28:51.526Z,99.90
2018-03-01T03:31:19.880Z,99.90
2018-03-01T03:33:48.216Z,99.90
2018-03-01T03:36:16.603Z,99.90
2018-03-01T03:38:44.924Z,99.90
2018-03-01T03:41:13.247Z,99.90
2018-03-01T03:43:41.625Z,99.90
2018-03-01T03:46:09.940Z,99.90
2018-03-01T03:48:39.068Z,99.90
2018-03-01T03:51:07.792Z,99.90
2018-03-01T03:53:36.108Z,99.90
2018-03-01T03:56:04.420Z,99.90
2018-03-01T03:58:32.760Z,99.90
2018-03-01T04:01:01.184Z,99.90
2018-03-01T04:03:29.496Z,99.90
2018-03-01T04:05:58.828Z,99.90
2018-03-01T04:08:27.145Z,99.90
2018-03-01T04:10:55.520Z,99.90
2018-03-01T04:13:23.836Z,99.90
2018-03-01T04:15:52.152Z,99.90
2018-03-01T04:18:20.529Z,99.90
2018-03-01T04:20:48.844Z,99.90
2018-03-01T04:23:17.625Z,99.90
2018-03-01T04:25:46.115Z,99.90
2018-03-01T04:28:14.446Z,99.90
2018-03-01T04:30:42.772Z,99.90
2018-03-01T04:33:11.127Z,99.90
2018-03-01T04:35:39.488Z,99.90
2018-03-01T04:38:07.812Z,99.90
2018-03-01T04:40:36.141Z,99.90
2018-03-01T04:43:05.012Z,99.90
2018-03-01T04:45:33.336Z,99.90
2018-03-01T04:48:01.682Z,99.90
2018-03-01T04:50:30.000Z,99.90
2018-03-01T04:52:58.312Z,99.90
2018-03-01T04:55:28.052Z,99.90
2018-03-01T04:57:56.395Z,99.90
2018-03-01T05:00:24.712Z,99.90
2018-03-01T05:02:53.096Z,99.90
2018-03-01T05:05:21.404Z,99.90
2018-03-01T05:07:51.548Z,99.90
2018-03-01T05:10:20.232Z,99.90
2018-03-01T05:12:48.553Z,99.90
2018-03-01T05:15:16.892Z,99.90
2018-03-01T05:17:45.968Z,99.90
2018-03-01T05:20:15.108Z,99.90
2018-03-01T05:22:43.423Z,99.90
2018-03-01T05:25:13.264Z,99.90
2018-03-01T05:27:43.074Z,99.90
2018-03-01T05:30:11.392Z,99.90
2018-03-01T05:32:39.721Z,99.90
2018-03-01T05:35:08.088Z,99.90
2018-03-01T05:37:36.451Z,99.90
2018-03-01T05:40:04.779Z,99.90
2018-03-01T05:42:33.164Z,99.90
2018-03-01T05:45:01.552Z,99.90
2018-03-01T05:47:29.869Z,99.90
2018-03-01T05:49:58.237Z,99.90
2018-03-01T05:52:26.556Z,99.90
2018-03-01T05:54:54.984Z,99.90
2018-03-01T05:57:23.444Z,99.90
2018-03-01T05:59:51.768Z,99.90
2018-03-01T06:02:20.124Z,99.90
2018-03-01T06:04:48.442Z,99.90
2018-03-01T06:07:16.804Z,99.90
2018-03-01T06:09:45.175Z,99.90
2018-03-01T06:12:13.484Z,99.90
2018-03-01T06:14:42.207Z,99.90
2018-03-01T06:17:10.516Z,99.90
2018-03-01T06:19:38.825Z,99.90
2018-03-01T06:22:07.184Z,99.90
2018-03-01T06:24:35.859Z,99.90
2018-03-01T06:27:04.169Z,99.90
2018-03-01T06:29:32.544Z,99.90
2018-03-01T06:32:01.127Z,99.90
2018-03-01T06:34:30.057Z,99.90
2018-03-01T06:36:58.447Z,99.90
2018-03-01T06:39:27.467Z,99.90
2018-03-01T06:41:56.100Z,99.90
2018-03-01T06:44:24.796Z,99.90
2018-03-01T06:46:53.696Z,99.90
2018-03-01T06:49:22.064Z,99.90
2018-03-01T06:51:50.431Z,99.90
2018-03-01T06:54:18.840Z,99.90
2018-03-01T06:56:48.111Z,99.90
2018-03-01T06:59:16.473Z,99.90
2018-03-01T07:01:44.825Z,99.90
2018-03-01T07:04:14.341Z,99.90
2018-03-01T07:06:42.799Z,99.90
2018-03-01T07:09:11.676Z,99.90
2018-03-01T07:11:39.996Z,99.90
2018-03-01T07:14:09.316Z,99.90
2018-03-01T07:16:38.628Z,99.90
2018-03-01T07:19:07.000Z,99.90
2018-03-01T07:21:35.325Z,99.90
2018-03-01T07:24:03.693Z,99.90
2018-03-01T07:26:32.012Z,99.90
2018-03-01T07:29:00.324Z,99.90
2018-03-01T07:31:28.700Z,99.90
2018-03-01T07:33:57.030Z,99.90
2018-03-01T07:36:25.340Z,99.90
2018-03-01T07:38:53.717Z,99.90
2018-03-01T07:41:22.088Z,99.90
2018-03-01T07:43:50.412Z,99.90
2018-03-01T07:46:18.807Z,99.90
2018-03-01T07:48:47.740Z,99.90
2018-03-01T07:51:16.064Z,99.90
2018-03-01T07:53:44.985Z,99.90
2018-03-01T07:56:13.489Z,99.90
2018-03-01T07:58:42.568Z,99.90
2018-03-01T08:01:10.944Z,99.90
2018-03-01T08:03:39.260Z,99.90
2018-03-01T08:06:07.593Z,99.90
2018-03-01T08:08:35.956Z,99.90
2018-03-01T08:11:04.268Z,99.90
2018-03-01T08:13:32.785Z,99.90
2018-03-01T08:16:01.453Z,99.90
2018-03-01T08:18:29.765Z,99.90
2018-03-01T08:20:58.135Z,99.80
2018-03-01T08:23:26.457Z,98.70
2018-03-01T08:25:55.336Z,98.90
2018-03-01T08:28:23.796Z,99.00
2018-03-01T08:30:52.152Z,98.20
2018-03-01T08:33:20.517Z,96.50
2018-03-01T08:35:48.843Z,97.20
2018-03-01T08:38:17.160Z,94.80
2018-03-01T08:40:45.533Z,93.90
2018-03-01T08:43:13.966Z,93.40
2018-03-01T08:45:42.304Z,93.20
2018-03-01T08:48:10.704Z,90.40
2018-03-01T08:50:39.028Z,92.30
2018-03-01T08:53:07.353Z,91.10
2018-03-01T08:55:36.499Z,87.90
2018-03-01T08:58:04.849Z,87.80
2018-03-01T09:00:33.181Z,90.90
2018-03-01T09:03:02.324Z,92.10
2018-03-01T09:05:30.964Z,92.10
2018-03-01T09:08:00.056Z,91.20
2018-03-01T09:10:29.368Z,91.70
2018-03-01T09:12:58.456Z,91.00
2018-03-01T09:15:27.712Z,90.00
2018-03-01T09:17:56.736Z,90.00
2018-03-01T09:20:26.974Z,91.20
2018-03-01T09:22:55.508Z,86.70
2018-03-01T09:25:23.952Z,87.00
2018-03-01T09:27:52.868Z,88.90
2018-03-01T09:30:21.380Z,89.80
2018-03-01T09:32:50.411Z,86.00
2018-03-01T09:35:18.788Z,87.70
2018-03-01T09:37:47.889Z,86.20
2018-03-01T09:40:18.376Z,85.20
2018-03-01T09:42:47.383Z,82.10
2018-03-01T09:45:16.021Z,82.00
2018-03-01T09:47:44.936Z,78.40
2018-03-01T09:50:13.814Z,78.50
2018-03-01T09:52:42.956Z,75.20
2018-03-01T09:55:12.148Z,75.90
2018-03-01T09:57:40.800Z,73.50
2018-03-01T10:00:09.269Z,74.70
2018-03-01T10:02:37.633Z,72.50
2018-03-01T10:05:06.013Z,74.20
2018-03-01T10:07:34.332Z,71.40
2018-03-01T10:10:02.738Z,69.90
2018-03-01T10:12:31.129Z,67.30
2018-03-01T10:14:59.466Z,68.70
2018-03-01T10:17:27.833Z,71.10
2018-03-01T10:19:56.164Z,68.50
2018-03-01T10:22:25.152Z,67.80
2018-03-01T10:24:54.280Z,67.10
2018-03-01T10:27:22.617Z,67.10
2018-03-01T10:29:50.944Z,67.50
2018-03-01T10:32:19.315Z,67.90
2018-03-01T10:34:47.649Z,65.90
2018-03-01T10:37:16.064Z,60.50
2018-03-01T10:39:44.517Z,58.70
2018-03-01T10:42:12.888Z,59.70
2018-03-01T10:44:41.224Z,59.90
2018-03-01T10:47:09.599Z,59.00
2018-03-01T10:49:39.008Z,62.30
2018-03-01T10:52:08.527Z,59.50
2018-03-01T10:54:36.884Z,58.00
2018-03-01T10:57:05.760Z,57.80
2018-03-01T10:59:34.744Z,58.20
2018-03-01T11:02:03.155Z,57.30
2018-03-01T11:04:32.036Z,59.90
2018-03-01T11:07:00.340Z,59.70
2018-03-01T11:09:28.719Z,54.90
2018-03-01T11:11:57.348Z,52.50
2018-03-01T11:14:26.403Z,55.50
2018-03-01T11:16:54.756Z,56.00
2018-03-01T11:19:23.128Z,54.30
2018-03-01T11:21:51.961Z,56.00
2018-03-01T11:24:20.284Z,56.60
2018-03-01T11:26:48.674Z,54.60
2018-03-01T11:29:17.516Z,53.70
2018-03-01T11:31:45.840Z,52.80
2018-03-01T11:34:14.704Z,53.00
2018-03-01T11:36:43.352Z,53.50
2018-03-01T11:39:11.672Z,53.20
2018-03-01T11:41:40.693Z,51.50
2018-03-01T11:44:09.036Z,52.30
2018-03-01T11:46:37.366Z,53.00
2018-03-01T11:49:05.713Z,52.80
2018-03-01T11:51:34.029Z,52.30
2018-03-01T11:54:03.912Z,53.10
2018-03-01T11:56:32.220Z,53.00
2018-03-01T11:59:01.069Z,51.40
2018-03-01T12:01:29.436Z,50.60
2018-03-01T12:03:57.744Z,49.80
2018-03-01T12:06:26.336Z,50.60
2018-03-01T12:08:54.739Z,49.60
2018-03-01T12:11:23.854Z,49.40
2018-03-01T12:13:52.932Z,49.80
2018-03-01T12:16:21.272Z,49.80
2018-03-01T12:18:49.606Z,50.00
2018-03-01T12:21:17.912Z,50.40
2018-03-01T12:23:46.265Z,51.20
2018-03-01T12:26:15.340Z,51.40
2018-03-01T12:28:43.664Z,51.40
2018-03-01T12:31:12.360Z,52.60
2018-03-01T12:33:41.227Z,52.50
2018-03-01T12:36:09.548Z,52.80
2018-03-01T12:38:37.912Z,51.90
2018-03-01T12:41:06.220Z,52.60
2018-03-01T12:43:34.540Z,51.20
2018-03-01T12:46:03.158Z,52.10
2018-03-01T12:48:31.428Z,53.10
2018-03-01T12:50:59.738Z,52.40
2018-03-01T12:53:28.080Z,50.00
2018-03-01T12:55:56.533Z,48.70
2018-03-01T12:58:24.850Z,48.30
2018-03-01T13:00:53.212Z,49.10
2018-03-01T13:03:21.546Z,49.40
2018-03-01T13:05:50.272Z,50.10
2018-03-01T13:08:18.630Z,50.50
2018-03-01T13:10:46.953Z,51.60
2018-03-01T13:13:15.445Z,51.50
2018-03-01T13:15:44.268Z,51.20
2018-03-01T13:18:12.586Z,51.20
2018-03-01T13:20:40.941Z,51.90
2018-03-01T13:23:09.279Z,52.00
2018-03-01T13:25:37.712Z,53.20
2018-03-01T13:28:06.396Z,52.20
2018-03-01T13:30:36.673Z,52.30
2018-03-01T13:33:10.230Z,53.20
2018-03-01T13:35:38.553Z,53.00
2018-03-01T13:38:06.919Z,52.40
2018-03-01T13:40:35.996Z,53.40
2018-03-01T13:43:04.952Z,53.40
2018-03-01T13:45:33.584Z,52.90
2018-03-01T13:48:03.061Z,53.20
2018-03-01T13:50:31.378Z,53.40
2018-03-01T13:52:59.764Z,52.90
2018-03-01T13:55:28.852Z,55.60
2018-03-01T13:57:57.188Z,55.60
2018-03-01T14:00:25.572Z,56.10
2018-03-01T14:02:53.901Z,56.40
2018-03-01T14:05:22.228Z,56.60
2018-03-01T14:07:50.580Z,55.80
2018-03-01T14:10:18.902Z,55.50
2018-03-01T14:12:53.496Z,55.60
2018-03-01T14:15:21.817Z,55.10
2018-03-01T14:31:24.308Z,53.90
2018-03-01T14:33:52.652Z,54.70
2018-03-01T14:36:20.977Z,54.60
2018-03-01T14:38:49.337Z,55.00
2018-03-01T14:41:18.212Z,54.60
2018-03-01T14:43:46.570Z,54.50
2018-03-01T14:46:14.888Z,54.50
2018-03-01T14:48:43.420Z,54.80
2018-03-01T14:51:11.741Z,55.10
2018-03-01T14:53:40.112Z,55.20
2018-03-01T14:56:08.473Z,55.80
2018-03-01T14:58:36.796Z,55.50
2018-03-01T15:01:05.241Z,55.80
2018-03-01T15:03:33.560Z,55.10
2018-03-01T15:06:02.028Z,55.90
2018-03-01T15:08:30.915Z,55.90
2018-03-01T15:10:59.344Z,55.80
2018-03-01T15:13:27.669Z,55.90
2018-03-01T15:15:56.048Z,56.20
2018-03-01T15:18:25.141Z,57.30
2018-03-01T15:20:54.233Z,57.40
2018-03-01T15:23:22.712Z,57.40
2018-03-01T15:25:51.813Z,57.20
2018-03-01T15:28:20.907Z,56.40
2018-03-01T15:30:50.048Z,57.10
2018-03-01T15:33:18.375Z,57.00
2018-03-01T15:35:47.690Z,57.40
2018-03-01T15:38:16.076Z,57.30
2018-03-01T15:40:44.473Z,58.30
2018-03-01T15:43:12.796Z,58.30
2018-03-01T15:45:41.171Z,58.80
2018-03-01T15:48:09.501Z,59.00
2018-03-01T15:50:38.533Z,59.00
2018-03-01T15:53:07.218Z,60.00
2018-03-01T15:55:35.564Z,60.70
2018-03-01T15:58:03.915Z,61.30
2018-03-01T16:00:32.528Z,61.20
2018-03-01T16:03:00.980Z,62.00
2018-03-01T16:05:29.720Z,61.60
2018-03-01T16:07:58.045Z,62.20
2018-03-01T16:10:27.917Z,61.40
2018-03-01T16:12:57.323Z,61.40
2018-03-01T16:15:26.541Z,62.40
2018-03-01T16:17:54.941Z,61.80
2018-03-01T16:20:23.409Z,61.70
2018-03-01T16:22:51.856Z,62.00
2018-03-01T16:25:23.810Z,62.10
2018-03-01T16:27:52.312Z,61.40
2018-03-01T16:30:21.272Z,61.60
2018-03-01T16:32:49.792Z,61.80
2018-03-01T16:35:18.165Z,60.90
2018-03-01T16:37:46.493Z,60.90
2018-03-01T16:40:14.873Z,61.10
2018-03-01T16:42:43.837Z,61.90
2018-03-01T16:45:12.936Z,62.20
2018-03-01T16:47:41.848Z,62.60
2018-03-01T16:50:10.179Z,61.40
2018-03-01T16:52:38.837Z,61.00
2018-03-01T16:55:07.238Z,61.60
2018-03-01T16:57:35.777Z,61.40
2018-03-01T17:00:04.209Z,61.20
2018-03-01T17:02:32.528Z,61.10
2018-03-01T17:05:01.290Z,61.70
2018-03-01T17:07:29.779Z,62.20
2018-03-01T17:09:58.900Z,63.00
2018-03-01T17:12:28.033Z,62.90
2018-03-01T17:14:56.505Z,63.10
2018-03-01T17:17:25.384Z,63.30
2018-03-01T17:19:53.744Z,63.50
2018-03-01T17:22:22.064Z,64.20
2018-03-01T17:24:50.384Z,63.40
2018-03-01T17:27:19.521Z,63.90
2018-03-01T17:29:47.850Z,63.80
2018-03-01T17:32:16.189Z,64.00
2018-03-01T17:34:44.536Z,64.00
2018-03-01T17:37:13.320Z,64.50
2018-03-01T17:39:42.432Z,63.80
2018-03-01T17:42:11.131Z,65.00
2018-03-01T17:44:39.465Z,65.00
2018-03-01T17:47:07.855Z,64.80
2018-03-01T17:49:36.977Z,64.50
2018-03-01T17:52:05.537Z,64.00
2018-03-01T17:54:33.856Z,64.10
2018-03-01T17:57:02.198Z,64.50
2018-03-01T17:59:30.647Z,64.40
2018-03-01T18:01:58.979Z,64.60
2018-03-01T18:04:27.301Z,64.50
2018-03-01T18:06:55.681Z,63.90
2018-03-01T18:09:24.057Z,63.10
2018-03-01T18:11:52.412Z,64.50
2018-03-01T18:14:21.405Z,64.40
2018-03-01T18:16:50.259Z,64.00
2018-03-01T18:19:18.734Z,63.70
2018-03-01T18:21:47.100Z,64.50
2018-03-01T18:24:16.892Z,64.80
2018-03-01T18:26:45.868Z,64.60
2018-03-01T18:29:14.425Z,64.50
2018-03-01T18:31:47.349Z,65.00
2018-03-01T18:34:15.987Z,64.80
2018-03-01T18:36:44.828Z,64.90
2018-03-01T18:39:13.281Z,64.50
2018-03-01T18:41:43.353Z,65.00
2018-03-01T18:44:11.777Z,64.90
2018-03-01T18:46:40.805Z,65.90
2018-03-01T18:49:09.967Z,64.70
2018-03-01T18:51:38.504Z,64.20
2018-03-01T18:54:07.836Z,65.30
2018-03-01T18:56:36.223Z,65.10
2018-03-01T18:59:04.560Z,65.00
2018-03-01T19:01:32.898Z,65.10
2018-03-01T19:04:01.732Z,66.30
2018-03-01T19:06:30.908Z,66.80
2018-03-01T19:08:59.235Z,67.30
2018-03-01T19:11:28.162Z,66.70
2018-03-01T19:13:56.496Z,66.80
2018-03-01T19:16:24.823Z,66.20
2018-03-01T19:18:53.980Z,67.10
2018-03-01T19:21:22.387Z,67.90
2018-03-01T19:23:52.383Z,68.30
2018-03-01T19:26:21.281Z,68.70
2018-03-01T19:28:49.613Z,68.30
2018-03-01T19:31:18.000Z,69.30
2018-03-01T19:33:46.956Z,69.20
2018-03-01T19:36:15.796Z,69.90
2018-03-01T19:38:44.151Z,70.00
2018-03-01T19:41:12.952Z,71.40
2018-03-01T19:43:41.276Z,71.60
2018-03-01T19:46:09.596Z,71.90
2018-03-01T19:48:38.832Z,72.70
2018-03-01T19:51:07.845Z,72.70
2018-03-01T19:53:36.172Z,73.20
2018-03-01T19:56:04.538Z,74.90
2018-03-01T19:58:32.875Z,74.50
2018-03-01T20:01:01.208Z,74.40
2018-03-01T20:03:29.568Z,75.60
2018-03-01T20:05:58.718Z,77.40
2018-03-01T20:08:27.075Z,77.30
2018-03-01T20:10:55.797Z,78.40
2018-03-01T20:13:24.087Z,78.70
2018-03-01T20:15:52.416Z,79.30
2018-03-01T20:18:20.811Z,79.80
2018-03-01T20:20:49.425Z,80.30
2018-03-01T20:23:17.756Z,82.30
2018-03-01T20:25:46.140Z,82.70
2018-03-01T20:28:14.740Z,82.40
2018-03-01T20:30:43.075Z,83.50
2018-03-01T20:33:11.749Z,85.00
2018-03-01T20:35:40.902Z,84.50
2018-03-01T20:38:09.192Z,84.50
2018-03-01T20:40:37.915Z,84.50
2018-03-01T20:43:06.296Z,84.30
2018-03-01T20:45:35.572Z,85.40
2018-03-01T20:48:04.364Z,85.40
2018-03-01T20:50:32.781Z,86.30
2018-03-01T20:53:01.157Z,87.10
2018-03-01T20:55:29.999Z,88.50
2018-03-01T20:57:58.500Z,87.00
2018-03-01T21:00:29.267Z,87.60
2018-03-01T21:02:59.160Z,89.40
2018-03-01T21:05:28.120Z,89.30
2018-03-01T21:07:57.172Z,88.40
2018-03-01T21:10:25.912Z,89.80
2018-03-01T21:12:54.548Z,90.20
2018-03-01T21:15:22.868Z,90.60
2018-03-01T21:17:51.250Z,91.00
2018-03-01T21:20:19.771Z,90.80
2018-03-01T21:22:48.580Z,91.20
2018-03-01T21:25:18.326Z,91.70
2018-03-01T21:27:46.884Z,91.90
2018-03-01T21:30:15.717Z,92.10
2018-03-01T21:32:44.084Z,92.40
2018-03-01T21:35:13.836Z,92.60
2018-03-01T21:37:42.151Z,93.40
2018-03-01T21:40:10.524Z,94.00
2018-03-01T21:42:38.853Z,94.00
2018-03-01T21:45:07.198Z,94.90
2018-03-01T21:47:35.657Z,95.20
2018-03-01T21:50:04.240Z,95.40
2018-03-01T21:52:33.208Z,95.40
2018-03-01T21:55:01.593Z,95.30
2018-03-01T21:57:30.771Z,95.30
2018-03-01T22:00:00.851Z,95.60
2018-03-01T22:02:29.177Z,96.20
2018-03-01T22:04:57.976Z,96.40
2018-03-01T22:07:27.332Z,96.60
2018-03-01T22:09:55.663Z,96.60
2018-03-01T22:12:24.675Z,96.80
2018-03-01T22:14:53.156Z,97.20
2018-03-01T22:17:22.022Z,97.40
2018-03-01T22:19:50.572Z,97.50
2018-03-01T22:22:20.289Z,97.70
2018-03-01T22:24:49.461Z,97.90
2018-03-01T22:27:18.430Z,98.30
2018-03-01T22:29:46.805Z,98.90
2018-03-01T22:32:15.159Z,98.70
2018-03-01T22:34:43.484Z,99.30
2018-03-01T22:37:12.288Z,99.10
2018-03-01T22:39:40.676Z,99.60
2018-03-01T22:42:09.920Z,99.90
2018-03-01T22:44:38.245Z,99.90
2018-03-01T22:47:06.875Z,99.90
2018-03-01T22:49:35.217Z,99.90
2018-03-01T22:52:04.470Z,99.90
2018-03-01T22:54:33.461Z,99.90
2018-03-01T22:57:02.662Z,99.90
2018-03-01T22:59:31.040Z,99.90
2018-03-01T23:01:59.396Z,99.90
2018-03-01T23:04:28.323Z,99.90
2018-03-01T23:06:56.768Z,99.90
2018-03-01T23:09:25.385Z,99.90
2018-03-01T23:11:54.224Z,99.90
2018-03-01T23:14:22.606Z,99.90
2018-03-01T23:16:51.251Z,99.90
2018-03-01T23:19:20.426Z,99.90
2018-03-01T23:21:49.485Z,99.90
2018-03-01T23:24:18.106Z,99.90
2018-03-01T23:26:47.708Z,99.90
2018-03-01T23:29:16.703Z,99.90
2018-03-01T23:31:45.273Z,99.90
2018-03-01T23:34:14.064Z,99.90
2018-03-01T23:36:43.160Z,99.90
2018-03-01T23:39:12.365Z,99.90
2018-03-01T23:41:41.462Z,99.90
2018-03-01T23:44:10.122Z,99.90
2018-03-01T23:46:38.881Z,99.90
2018-03-01T23:49:08.750Z,99.90
2018-03-01T23:51:37.771Z,99.90
2018-03-01T23:54:06.872Z,99.90
2018-03-01T23:56:35.939Z,99.90
2018-03-01T23:59:04.305Z,99.90
